sensor_id;sensor_type;location;lat;lon;timestamp;pressure;altitude;pressure_sealevel;temperature;humidity
6680;BME280;3376;42.664;23.346;2022-10-26T00:01:32;94989.03;;;16.81;82.15
6680;BME280;3376;42.664;23.346;2022-10-26T00:03:58;94978.97;;;16.84;82.33
6680;BME280;3376;42.664;23.346;2022-10-26T00:06:26;94990.03;;;16.86;82.24
6680;BME280;3376;42.664;23.346;2022-10-26T00:08:55;94998.25;;;16.83;82.62
6680;BME280;3376;42.664;23.346;2022-10-26T00:11:22;95002.50;;;16.84;82.84
6680;BME280;3376;42.664;23.346;2022-10-26T00:13:49;94995.88;;;16.88;81.65
6680;BME280;3376;42.664;23.346;2022-10-26T00:16:18;94964.06;;;16.65;81.80
6680;BME280;3376;42.664;23.346;2022-10-26T00:18:46;94994.03;;;16.82;82.39
6680;BME280;3376;42.664;23.346;2022-10-26T00:21:13;94989.81;;;16.75;82.34
6680;BME280;3376;42.664;23.346;2022-10-26T00:23:40;94995.84;;;16.75;82.14
6680;BME280;3376;42.664;23.346;2022-10-26T00:26:07;94999.69;;;16.79;81.83
6680;BME280;3376;42.664;23.346;2022-10-26T00:28:35;95005.34;;;16.76;82.01
6680;BME280;3376;42.664;23.346;2022-10-26T00:31:02;94949.94;;;16.40;82.14
6680;BME280;3376;42.664;23.346;2022-10-26T00:33:29;95008.75;;;16.70;81.84
6680;BME280;3376;42.664;23.346;2022-10-26T00:35:58;95000.91;;;16.57;82.45
6680;BME280;3376;42.664;23.346;2022-10-26T00:38:24;95011.16;;;16.65;82.55
6680;BME280;3376;42.664;23.346;2022-10-26T00:40:51;94824.19;;;15.44;82.83
6680;BME280;3376;42.664;23.346;2022-10-26T00:43:33;95000.50;;;16.54;83.44
6680;BME280;3376;42.664;23.346;2022-10-26T00:46:02;94988.19;;;16.48;83.36
6680;BME280;3376;42.664;23.346;2022-10-26T00:48:34;94995.06;;;16.55;82.83
6680;BME280;3376;42.664;23.346;2022-10-26T00:51:07;94997.59;;;16.42;83.97
6680;BME280;3376;42.664;23.346;2022-10-26T00:53:34;94985.53;;;16.34;84.57
6680;BME280;3376;42.664;23.346;2022-10-26T00:56:02;94982.53;;;16.37;84.12
6680;BME280;3376;42.664;23.346;2022-10-26T00:58:29;94995.25;;;16.47;83.77
6680;BME280;3376;42.664;23.346;2022-10-26T01:00:57;94979.28;;;16.29;84.25
6680;BME280;3376;42.664;23.346;2022-10-26T01:03:23;94976.47;;;16.24;83.95
6680;BME280;3376;42.664;23.346;2022-10-26T01:05:54;94994.97;;;16.29;84.35
6680;BME280;3376;42.664;23.346;2022-10-26T01:08:23;94991.38;;;16.30;84.61
6680;BME280;3376;42.664;23.346;2022-10-26T01:10:52;94990.56;;;16.23;84.64
6680;BME280;3376;42.664;23.346;2022-10-26T01:13:20;94941.25;;;15.94;84.77
6680;BME280;3376;42.664;23.346;2022-10-26T01:15:51;94984.09;;;16.19;84.77
6680;BME280;3376;42.664;23.346;2022-10-26T01:18:27;94974.00;;;16.03;85.24
6680;BME280;3376;42.664;23.346;2022-10-26T01:24:11;94987.47;;;16.00;86.20
6680;BME280;3376;42.664;23.346;2022-10-26T01:26:59;94978.03;;;15.99;86.80
6680;BME280;3376;42.664;23.346;2022-10-26T01:29:49;94980.84;;;16.04;86.89
6680;BME280;3376;42.664;23.346;2022-10-26T01:32:22;94954.09;;;15.89;87.39
6680;BME280;3376;42.664;23.346;2022-10-26T01:34:56;94979.44;;;16.01;86.93
6680;BME280;3376;42.664;23.346;2022-10-26T01:37:29;94978.44;;;16.02;87.14
6680;BME280;3376;42.664;23.346;2022-10-26T01:39:59;94981.25;;;16.01;87.41
6680;BME280;3376;42.664;23.346;2022-10-26T01:42:30;94981.03;;;15.96;87.60
6680;BME280;3376;42.664;23.346;2022-10-26T01:45:01;94980.03;;;15.90;88.25
6680;BME280;3376;42.664;23.346;2022-10-26T01:47:32;94963.50;;;15.83;87.83
6680;BME280;3376;42.664;23.346;2022-10-26T01:50:01;94966.69;;;15.79;88.52
6680;BME280;3376;42.664;23.346;2022-10-26T01:52:29;94964.47;;;15.76;88.08
6680;BME280;3376;42.664;23.346;2022-10-26T01:55:00;94968.91;;;15.75;88.67
6680;BME280;3376;42.664;23.346;2022-10-26T01:57:28;94920.78;;;15.44;88.39
6680;BME280;3376;42.664;23.346;2022-10-26T02:00:08;94965.91;;;15.72;89.23
6680;BME280;3376;42.664;23.346;2022-10-26T02:02:55;94962.63;;;15.63;88.66
6680;BME280;3376;42.664;23.346;2022-10-26T02:05:53;94967.06;;;15.63;89.36
6680;BME280;3376;42.664;23.346;2022-10-26T02:08:54;94963.81;;;15.54;89.71
6680;BME280;3376;42.664;23.346;2022-10-26T02:11:29;94962.16;;;15.47;89.47
6680;BME280;3376;42.664;23.346;2022-10-26T02:14:07;94961.81;;;15.56;89.59
6680;BME280;3376;42.664;23.346;2022-10-26T02:16:39;94978.28;;;15.63;89.24
6680;BME280;3376;42.664;23.346;2022-10-26T02:19:19;94983.94;;;15.67;88.96
6680;BME280;3376;42.664;23.346;2022-10-26T02:21:52;94857.41;;;14.81;88.90
6680;BME280;3376;42.664;23.346;2022-10-26T02:24:21;94979.09;;;15.64;89.00
6680;BME280;3376;42.664;23.346;2022-10-26T02:26:49;94947.16;;;15.27;89.87
6680;BME280;3376;42.664;23.346;2022-10-26T02:29:18;94986.09;;;15.50;90.35
6680;BME280;3376;42.664;23.346;2022-10-26T02:31:47;94965.38;;;15.42;90.48
6680;BME280;3376;42.664;23.346;2022-10-26T02:34:19;94967.78;;;15.44;90.25
6680;BME280;3376;42.664;23.346;2022-10-26T02:36:48;94986.31;;;15.55;90.27
6680;BME280;3376;42.664;23.346;2022-10-26T02:39:18;94987.72;;;15.51;90.55
6680;BME280;3376;42.664;23.346;2022-10-26T02:41:47;94989.28;;;15.46;91.45
6680;BME280;3376;42.664;23.346;2022-10-26T02:44:18;94983.63;;;15.42;91.68
6680;BME280;3376;42.664;23.346;2022-10-26T02:46:49;94956.31;;;15.10;91.99
6680;BME280;3376;42.664;23.346;2022-10-26T02:49:18;94990.19;;;15.31;92.76
6680;BME280;3376;42.664;23.346;2022-10-26T02:51:48;94986.09;;;15.22;92.98
6680;BME280;3376;42.664;23.346;2022-10-26T02:54:23;94986.94;;;15.29;92.69
6680;BME280;3376;42.664;23.346;2022-10-26T02:56:55;94985.69;;;15.19;93.08
6680;BME280;3376;42.664;23.346;2022-10-26T02:59:27;94997.78;;;15.26;93.11
6680;BME280;3376;42.664;23.346;2022-10-26T03:01:56;94995.41;;;15.31;92.49
6680;BME280;3376;42.664;23.346;2022-10-26T03:04:28;94968.75;;;15.08;92.94
6680;BME280;3376;42.664;23.346;2022-10-26T03:06:55;94998.06;;;15.10;94.06
6680;BME280;3376;42.664;23.346;2022-10-26T03:09:22;95002.44;;;15.03;94.24
6680;BME280;3376;42.664;23.346;2022-10-26T03:11:49;94995.78;;;14.94;94.66
6680;BME280;3376;42.664;23.346;2022-10-26T03:14:16;95004.50;;;14.80;95.95
6680;BME280;3376;42.664;23.346;2022-10-26T03:16:43;95009.72;;;14.80;95.77
6680;BME280;3376;42.664;23.346;2022-10-26T03:19:10;94805.94;;;13.52;95.64
6680;BME280;3376;42.664;23.346;2022-10-26T03:21:38;95020.09;;;14.74;96.30
6680;BME280;3376;42.664;23.346;2022-10-26T03:24:07;94993.50;;;14.36;97.57
6680;BME280;3376;42.664;23.346;2022-10-26T03:26:34;95019.56;;;14.36;98.83
6680;BME280;3376;42.664;23.346;2022-10-26T03:29:00;95023.81;;;14.23;100.00
6680;BME280;3376;42.664;23.346;2022-10-26T03:31:27;95033.78;;;14.19;100.00
6680;BME280;3376;42.664;23.346;2022-10-26T03:33:54;95030.94;;;14.14;100.00
6680;BME280;3376;42.664;23.346;2022-10-26T03:36:21;95020.88;;;14.11;100.00
6680;BME280;3376;42.664;23.346;2022-10-26T03:38:49;95025.34;;;14.17;100.00
6680;BME280;3376;42.664;23.346;2022-10-26T03:41:16;95032.78;;;14.20;100.00
6680;BME280;3376;42.664;23.346;2022-10-26T03:43:42;95019.38;;;14.23;100.00
6680;BME280;3376;42.664;23.346;2022-10-26T03:46:09;95030.72;;;14.30;100.00
6680;BME280;3376;42.664;23.346;2022-10-26T03:48:36;95028.84;;;14.24;100.00
6680;BME280;3376;42.664;23.346;2022-10-26T03:51:03;95035.03;;;14.23;100.00
6680;BME280;3376;42.664;23.346;2022-10-26T03:53:29;95025.50;;;14.30;100.00
6680;BME280;3376;42.664;23.346;2022-10-26T03:55:58;95027.00;;;14.39;100.00
6680;BME280;3376;42.664;23.346;2022-10-26T03:58:24;95004.47;;;14.32;100.00
6680;BME280;3376;42.664;23.346;2022-10-26T04:00:51;95028.50;;;14.48;100.00
6680;BME280;3376;42.664;23.346;2022-10-26T04:03:18;94997.47;;;14.32;100.00
6680;BME280;3376;42.664;23.346;2022-10-26T04:05:45;95024.03;;;14.42;100.00
6680;BME280;3376;42.664;23.346;2022-10-26T04:08:12;95036.66;;;14.45;100.00
6680;BME280;3376;42.664;23.346;2022-10-26T04:10:38;95030.03;;;14.43;100.00
6680;BME280;3376;42.664;23.346;2022-10-26T04:13:07;95033.72;;;14.48;100.00
6680;BME280;3376;42.664;23.346;2022-10-26T04:15:35;95036.56;;;14.53;100.00
6680;BME280;3376;42.664;23.346;2022-10-26T04:18:02;95034.41;;;14.57;100.00
6680;BME280;3376;42.664;23.346;2022-10-26T04:20:31;95032.63;;;14.64;100.00
6680;BME280;3376;42.664;23.346;2022-10-26T04:23:00;95035.06;;;14.65;100.00
6680;BME280;3376;42.664;23.346;2022-10-26T04:25:27;95022.97;;;14.58;100.00
6680;BME280;3376;42.664;23.346;2022-10-26T04:27:54;95036.28;;;14.69;100.00
6680;BME280;3376;42.664;23.346;2022-10-26T04:30:22;95033.06;;;14.67;100.00
6680;BME280;3376;42.664;23.346;2022-10-26T04:32:49;95031.34;;;14.53;100.00
6680;BME280;3376;42.664;23.346;2022-10-26T04:35:17;95033.81;;;14.61;100.00
6680;BME280;3376;42.664;23.346;2022-10-26T04:37:43;95042.22;;;14.57;100.00
6680;BME280;3376;42.664;23.346;2022-10-26T04:40:10;95046.47;;;14.85;100.00
6680;BME280;3376;42.664;23.346;2022-10-26T04:42:41;95044.09;;;14.90;100.00
6680;BME280;3376;42.664;23.346;2022-10-26T04:45:09;95038.41;;;14.80;100.00
6680;BME280;3376;42.664;23.346;2022-10-26T04:47:37;95048.31;;;14.91;100.00
6680;BME280;3376;42.664;23.346;2022-10-26T04:50:05;95045.22;;;14.81;100.00
6680;BME280;3376;42.664;23.346;2022-10-26T04:52:32;95053.25;;;14.80;100.00
6680;BME280;3376;42.664;23.346;2022-10-26T04:54:59;95026.56;;;14.57;100.00
6680;BME280;3376;42.664;23.346;2022-10-26T04:57:30;95058.41;;;14.73;100.00
6680;BME280;3376;42.664;23.346;2022-10-26T04:59:57;95057.53;;;14.66;100.00
6680;BME280;3376;42.664;23.346;2022-10-26T05:02:24;95069.47;;;14.75;100.00
6680;BME280;3376;42.664;23.346;2022-10-26T05:04:52;95046.91;;;14.68;100.00
6680;BME280;3376;42.664;23.346;2022-10-26T05:07:19;95076.47;;;14.75;100.00
6680;BME280;3376;42.664;23.346;2022-10-26T05:09:45;95065.22;;;14.74;100.00
6680;BME280;3376;42.664;23.346;2022-10-26T05:12:12;95040.59;;;14.77;100.00
6680;BME280;3376;42.664;23.346;2022-10-26T05:14:39;95017.84;;;14.71;100.00
6680;BME280;3376;42.664;23.346;2022-10-26T05:17:06;95056.50;;;15.09;100.00
6680;BME280;3376;42.664;23.346;2022-10-26T05:19:33;95058.34;;;15.15;100.00
6680;BME280;3376;42.664;23.346;2022-10-26T05:22:01;95046.09;;;15.16;100.00
6680;BME280;3376;42.664;23.346;2022-10-26T05:24:27;95054.13;;;15.14;100.00
6680;BME280;3376;42.664;23.346;2022-10-26T05:26:54;95063.03;;;15.26;100.00
6680;BME280;3376;42.664;23.346;2022-10-26T05:29:21;95016.66;;;14.94;100.00
6680;BME280;3376;42.664;23.346;2022-10-26T05:31:48;95077.88;;;15.26;100.00
6680;BME280;3376;42.664;23.346;2022-10-26T05:34:14;95078.75;;;15.33;100.00
6680;BME280;3376;42.664;23.346;2022-10-26T05:36:41;95072.63;;;15.41;100.00
6680;BME280;3376;42.664;23.346;2022-10-26T05:39:09;95085.53;;;15.55;100.00
6680;BME280;3376;42.664;23.346;2022-10-26T05:41:36;95096.50;;;15.72;100.00
6680;BME280;3376;42.664;23.346;2022-10-26T05:44:03;95085.28;;;15.78;100.00
6680;BME280;3376;42.664;23.346;2022-10-26T05:46:30;94888.88;;;14.73;97.81
6680;BME280;3376;42.664;23.346;2022-10-26T05:48:57;95106.59;;;16.28;94.08
6680;BME280;3376;42.664;23.346;2022-10-26T05:51:23;95089.13;;;16.35;88.46
6680;BME280;3376;42.664;23.346;2022-10-26T05:53:50;94956.03;;;15.74;87.58
6680;BME280;3376;42.664;23.346;2022-10-26T05:56:30;95122.13;;;17.03;85.94
6680;BME280;3376;42.664;23.346;2022-10-26T05:58:59;95118.91;;;17.27;85.88
6680;BME280;3376;42.664;23.346;2022-10-26T06:01:31;95133.59;;;17.41;82.75
6680;BME280;3376;42.664;23.346;2022-10-26T06:04:13;95115.06;;;17.63;82.49
6680;BME280;3376;42.664;23.346;2022-10-26T06:06:44;95132.00;;;17.67;81.68
6680;BME280;3376;42.664;23.346;2022-10-26T06:09:28;95096.75;;;17.56;80.31
6680;BME280;3376;42.664;23.346;2022-10-26T06:11:57;95083.81;;;17.68;78.79
6680;BME280;3376;42.664;23.346;2022-10-26T06:14:26;95141.91;;;18.41;76.47
6680;BME280;3376;42.664;23.346;2022-10-26T06:17:17;95139.16;;;19.05;73.63
6680;BME280;3376;42.664;23.346;2022-10-26T06:19:57;95115.63;;;19.90;68.11
6680;BME280;3376;42.664;23.346;2022-10-26T06:22:41;95143.63;;;21.05;64.20
6680;BME280;3376;42.664;23.346;2022-10-26T06:25:19;95125.31;;;21.86;62.10
6680;BME280;3376;42.664;23.346;2022-10-26T06:27:52;95147.22;;;22.84;58.53
6680;BME280;3376;42.664;23.346;2022-10-26T06:30:22;95134.56;;;23.14;57.09
6680;BME280;3376;42.664;23.346;2022-10-26T06:32:49;95148.91;;;23.46;55.82
6680;BME280;3376;42.664;23.346;2022-10-26T06:35:27;95138.84;;;24.14;53.23
6680;BME280;3376;42.664;23.346;2022-10-26T06:37:58;95146.31;;;24.17;52.13
6680;BME280;3376;42.664;23.346;2022-10-26T06:40:30;95144.13;;;24.53;51.28
6680;BME280;3376;42.664;23.346;2022-10-26T06:42:59;95144.69;;;24.98;50.43
6680;BME280;3376;42.664;23.346;2022-10-26T06:45:27;95153.91;;;25.17;49.47
6680;BME280;3376;42.664;23.346;2022-10-26T06:47:58;95114.81;;;25.34;48.42
6680;BME280;3376;42.664;23.346;2022-10-26T06:50:33;95157.56;;;26.01;46.09
6680;BME280;3376;42.664;23.346;2022-10-26T06:53:17;95152.09;;;25.76;46.97
6680;BME280;3376;42.664;23.346;2022-10-26T06:55:47;95166.50;;;25.85;46.51
6680;BME280;3376;42.664;23.346;2022-10-26T06:58:19;95166.34;;;26.01;45.94
6680;BME280;3376;42.664;23.346;2022-10-26T07:00:47;95168.16;;;26.27;45.12
6680;BME280;3376;42.664;23.346;2022-10-26T07:03:16;95164.09;;;26.20;45.26
6680;BME280;3376;42.664;23.346;2022-10-26T07:05:43;95163.94;;;26.36;44.61
6680;BME280;3376;42.664;23.346;2022-10-26T07:08:10;95167.69;;;26.40;44.48
6680;BME280;3376;42.664;23.346;2022-10-26T07:10:37;95172.31;;;26.60;44.19
6680;BME280;3376;42.664;23.346;2022-10-26T07:13:04;95177.28;;;26.46;43.56
6680;BME280;3376;42.664;23.346;2022-10-26T07:15:33;95174.06;;;26.39;44.01
6680;BME280;3376;42.664;23.346;2022-10-26T07:18:00;95174.97;;;26.13;44.00
6680;BME280;3376;42.664;23.346;2022-10-26T07:20:30;95163.84;;;25.85;44.69
6680;BME280;3376;42.664;23.346;2022-10-26T07:22:58;95172.25;;;25.77;45.29
6680;BME280;3376;42.664;23.346;2022-10-26T07:25:25;95177.13;;;25.85;45.02
6680;BME280;3376;42.664;23.346;2022-10-26T07:27:56;95172.53;;;26.07;44.49
6680;BME280;3376;42.664;23.346;2022-10-26T07:30:22;95175.97;;;26.07;44.81
6680;BME280;3376;42.664;23.346;2022-10-26T07:32:57;95172.94;;;25.62;45.21
6680;BME280;3376;42.664;23.346;2022-10-26T07:35:24;95154.38;;;25.62;45.34
6680;BME280;3376;42.664;23.346;2022-10-26T07:37:55;95163.56;;;25.81;44.98
6680;BME280;3376;42.664;23.346;2022-10-26T07:40:22;95169.94;;;25.85;44.87
6680;BME280;3376;42.664;23.346;2022-10-26T07:42:49;95166.72;;;25.83;45.29
6680;BME280;3376;42.664;23.346;2022-10-26T07:45:16;95141.84;;;25.58;45.69
6680;BME280;3376;42.664;23.346;2022-10-26T07:47:44;95145.22;;;25.80;45.13
6680;BME280;3376;42.664;23.346;2022-10-26T07:50:12;95163.63;;;26.33;44.71
6680;BME280;3376;42.664;23.346;2022-10-26T07:52:39;95156.28;;;27.02;42.93
6680;BME280;3376;42.664;23.346;2022-10-26T07:55:07;95158.47;;;27.25;41.83
6680;BME280;3376;42.664;23.346;2022-10-26T07:57:34;95143.91;;;27.42;41.35
6680;BME280;3376;42.664;23.346;2022-10-26T08:00:03;95164.44;;;27.87;40.65
6680;BME280;3376;42.664;23.346;2022-10-26T08:02:30;95153.50;;;27.78;40.37
6680;BME280;3376;42.664;23.346;2022-10-26T08:04:57;95112.22;;;27.56;39.93
6680;BME280;3376;42.664;23.346;2022-10-26T08:07:25;95164.13;;;28.29;39.53
6680;BME280;3376;42.664;23.346;2022-10-26T08:09:52;95143.53;;;28.49;39.50
6680;BME280;3376;42.664;23.346;2022-10-26T08:12:19;95128.16;;;28.11;39.63
6680;BME280;3376;42.664;23.346;2022-10-26T08:14:46;95159.34;;;28.16;40.17
6680;BME280;3376;42.664;23.346;2022-10-26T08:17:12;95030.19;;;26.93;39.67
6680;BME280;3376;42.664;23.346;2022-10-26T08:19:39;95165.75;;;27.74;40.52
6680;BME280;3376;42.664;23.346;2022-10-26T08:22:06;95162.03;;;27.91;40.51
6680;BME280;3376;42.664;23.346;2022-10-26T08:24:35;95160.44;;;27.95;39.53
6680;BME280;3376;42.664;23.346;2022-10-26T08:27:02;95146.84;;;27.96;39.26
6680;BME280;3376;42.664;23.346;2022-10-26T08:29:29;95156.44;;;28.07;39.00
6680;BME280;3376;42.664;23.346;2022-10-26T08:31:56;95103.34;;;27.20;39.21
6680;BME280;3376;42.664;23.346;2022-10-26T08:34:22;95149.50;;;27.66;41.18
6680;BME280;3376;42.664;23.346;2022-10-26T08:36:49;95157.47;;;27.51;39.89
6680;BME280;3376;42.664;23.346;2022-10-26T08:39:16;95159.63;;;27.99;39.75
6680;BME280;3376;42.664;23.346;2022-10-26T08:41:46;95133.69;;;28.50;38.92
6680;BME280;3376;42.664;23.346;2022-10-26T08:44:24;95153.53;;;28.98;37.14
6680;BME280;3376;42.664;23.346;2022-10-26T08:46:54;95159.75;;;29.37;36.58
6680;BME280;3376;42.664;23.346;2022-10-26T08:49:25;95128.06;;;29.59;35.95
6680;BME280;3376;42.664;23.346;2022-10-26T08:51:56;95164.88;;;29.72;36.08
6680;BME280;3376;42.664;23.346;2022-10-26T08:54:33;95153.59;;;28.82;36.55
6680;BME280;3376;42.664;23.346;2022-10-26T08:57:12;95168.84;;;28.72;36.72
6680;BME280;3376;42.664;23.346;2022-10-26T08:59:43;95166.94;;;28.82;37.14
6680;BME280;3376;42.664;23.346;2022-10-26T09:02:14;95155.28;;;28.48;37.27
6680;BME280;3376;42.664;23.346;2022-10-26T09:04:42;95161.44;;;28.54;37.25
6680;BME280;3376;42.664;23.346;2022-10-26T09:07:16;95141.69;;;28.55;37.48
6680;BME280;3376;42.664;23.346;2022-10-26T09:09:54;95163.09;;;27.64;38.30
6680;BME280;3376;42.664;23.346;2022-10-26T09:12:28;95153.22;;;27.85;38.29
6680;BME280;3376;42.664;23.346;2022-10-26T09:15:09;95136.72;;;27.78;38.28
6680;BME280;3376;42.664;23.346;2022-10-26T09:17:43;95154.81;;;28.21;38.65
6680;BME280;3376;42.664;23.346;2022-10-26T09:23:16;95156.94;;;27.74;37.74
6680;BME280;3376;42.664;23.346;2022-10-26T09:25:56;95152.69;;;27.58;38.80
6680;BME280;3376;42.664;23.346;2022-10-26T09:28:26;95152.09;;;28.41;37.66
6680;BME280;3376;42.664;23.346;2022-10-26T09:30:55;95148.88;;;28.54;35.43
6680;BME280;3376;42.664;23.346;2022-10-26T09:33:24;95146.50;;;28.43;36.18
6680;BME280;3376;42.664;23.346;2022-10-26T09:35:54;95164.88;;;28.44;37.07
6680;BME280;3376;42.664;23.346;2022-10-26T09:38:26;95154.63;;;28.97;35.09
6680;BME280;3376;42.664;23.346;2022-10-26T09:40:58;95118.81;;;28.24;36.61
6680;BME280;3376;42.664;23.346;2022-10-26T09:43:32;95154.72;;;28.66;35.54
6680;BME280;3376;42.664;23.346;2022-10-26T09:46:01;95153.66;;;29.26;34.52
6680;BME280;3376;42.664;23.346;2022-10-26T09:48:33;95145.75;;;29.06;34.48
6680;BME280;3376;42.664;23.346;2022-10-26T09:51:02;95141.69;;;29.24;33.87
6680;BME280;3376;42.664;23.346;2022-10-26T09:53:29;95156.06;;;29.33;32.89
6680;BME280;3376;42.664;23.346;2022-10-26T09:56:02;95008.63;;;28.48;32.60
6680;BME280;3376;42.664;23.346;2022-10-26T09:58:35;95113.03;;;28.85;32.84
6680;BME280;3376;42.664;23.346;2022-10-26T10:01:02;95104.53;;;28.78;32.97
6680;BME280;3376;42.664;23.346;2022-10-26T10:03:30;95137.34;;;29.33;33.01
6680;BME280;3376;42.664;23.346;2022-10-26T10:06:13;95133.81;;;29.81;32.33
6680;BME280;3376;42.664;23.346;2022-10-26T10:08:41;95132.91;;;30.19;31.07
6680;BME280;3376;42.664;23.346;2022-10-26T10:11:09;95133.59;;;29.72;32.07
6680;BME280;3376;42.664;23.346;2022-10-26T10:13:39;95136.28;;;29.34;31.71
6680;BME280;3376;42.664;23.346;2022-10-26T10:16:10;95128.78;;;28.82;32.25
6680;BME280;3376;42.664;23.346;2022-10-26T10:18:39;95116.81;;;28.69;32.95
6680;BME280;3376;42.664;23.346;2022-10-26T10:21:07;95115.19;;;28.78;33.76
6680;BME280;3376;42.664;23.346;2022-10-26T10:23:36;95110.66;;;28.79;32.03
6680;BME280;3376;42.664;23.346;2022-10-26T10:26:05;95138.09;;;28.89;33.06
6680;BME280;3376;42.664;23.346;2022-10-26T10:28:33;95107.88;;;28.99;32.29
6680;BME280;3376;42.664;23.346;2022-10-26T10:31:03;95124.50;;;29.35;32.04
6680;BME280;3376;42.664;23.346;2022-10-26T10:33:37;95114.13;;;29.72;31.10
6680;BME280;3376;42.664;23.346;2022-10-26T10:36:08;95103.91;;;30.08;30.52
6680;BME280;3376;42.664;23.346;2022-10-26T10:38:37;95106.41;;;30.28;29.99
6680;BME280;3376;42.664;23.346;2022-10-26T10:41:05;95111.97;;;30.02;30.86
6680;BME280;3376;42.664;23.346;2022-10-26T10:43:43;95094.28;;;29.44;31.60
6680;BME280;3376;42.664;23.346;2022-10-26T10:46:17;95072.00;;;28.71;32.06
6680;BME280;3376;42.664;23.346;2022-10-26T10:48:46;95093.94;;;28.58;32.71
6680;BME280;3376;42.664;23.346;2022-10-26T10:51:18;95100.09;;;28.59;32.93
6680;BME280;3376;42.664;23.346;2022-10-26T10:53:46;95095.53;;;28.59;32.88
6680;BME280;3376;42.664;23.346;2022-10-26T10:56:22;95101.16;;;28.53;33.17
6680;BME280;3376;42.664;23.346;2022-10-26T10:59:02;95087.50;;;28.74;32.88
6680;BME280;3376;42.664;23.346;2022-10-26T11:01:38;95085.69;;;29.14;32.19
6680;BME280;3376;42.664;23.346;2022-10-26T11:04:26;95088.00;;;29.59;32.17
6680;BME280;3376;42.664;23.346;2022-10-26T11:06:59;95082.63;;;29.64;32.45
6680;BME280;3376;42.664;23.346;2022-10-26T11:09:32;95086.44;;;29.58;31.97
6680;BME280;3376;42.664;23.346;2022-10-26T11:12:02;95077.66;;;29.52;32.78
6680;BME280;3376;42.664;23.346;2022-10-26T11:14:37;95085.31;;;29.30;34.11
6680;BME280;3376;42.664;23.346;2022-10-26T11:17:12;95077.31;;;29.25;33.07
6680;BME280;3376;42.664;23.346;2022-10-26T11:19:44;95059.81;;;29.04;32.89
6680;BME280;3376;42.664;23.346;2022-10-26T11:22:16;95042.03;;;28.89;33.18
6680;BME280;3376;42.664;23.346;2022-10-26T11:24:49;95080.41;;;28.93;33.65
6680;BME280;3376;42.664;23.346;2022-10-26T11:27:25;95079.44;;;28.84;33.72
6680;BME280;3376;42.664;23.346;2022-10-26T11:29:59;95048.72;;;28.87;33.44
6680;BME280;3376;42.664;23.346;2022-10-26T11:32:32;95033.56;;;28.82;33.42
6680;BME280;3376;42.664;23.346;2022-10-26T11:35:05;95067.16;;;28.83;34.12
6680;BME280;3376;42.664;23.346;2022-10-26T11:37:44;95066.91;;;28.80;33.37
6680;BME280;3376;42.664;23.346;2022-10-26T11:40:24;95028.94;;;28.39;34.22
6680;BME280;3376;42.664;23.346;2022-10-26T11:42:59;95054.78;;;28.54;33.03
6680;BME280;3376;42.664;23.346;2022-10-26T11:45:31;95049.16;;;28.55;32.96
6680;BME280;3376;42.664;23.346;2022-10-26T11:48:08;95067.28;;;29.02;32.17
6680;BME280;3376;42.664;23.346;2022-10-26T11:50:41;94940.53;;;28.71;31.25
6680;BME280;3376;42.664;23.346;2022-10-26T11:53:11;95057.69;;;29.45;31.40
6680;BME280;3376;42.664;23.346;2022-10-26T11:55:41;95045.03;;;29.55;30.98
6680;BME280;3376;42.664;23.346;2022-10-26T11:58:09;95051.34;;;29.69;30.24
6680;BME280;3376;42.664;23.346;2022-10-26T12:00:43;95058.91;;;29.57;30.07
6680;BME280;3376;42.664;23.346;2022-10-26T12:03:16;95029.59;;;29.19;30.97
6680;BME280;3376;42.664;23.346;2022-10-26T12:05:48;95041.28;;;29.23;31.44
6680;BME280;3376;42.664;23.346;2022-10-26T12:08:20;95056.56;;;29.51;31.25
6680;BME280;3376;42.664;23.346;2022-10-26T12:10:52;95057.88;;;29.20;31.38
6680;BME280;3376;42.664;23.346;2022-10-26T12:13:26;95041.00;;;29.29;29.37
6680;BME280;3376;42.664;23.346;2022-10-26T12:15:59;95059.28;;;29.07;29.89
6680;BME280;3376;42.664;23.346;2022-10-26T12:18:36;95046.94;;;28.72;30.02
6680;BME280;3376;42.664;23.346;2022-10-26T12:21:05;95048.13;;;28.51;30.08
6680;BME280;3376;42.664;23.346;2022-10-26T12:23:35;95043.53;;;28.62;29.28
6680;BME280;3376;42.664;23.346;2022-10-26T12:29:23;95035.59;;;28.52;29.71
6680;BME280;3376;42.664;23.346;2022-10-26T12:31:50;95039.72;;;28.09;29.86
6680;BME280;3376;42.664;23.346;2022-10-26T12:34:24;95044.56;;;27.97;30.03
6680;BME280;3376;42.664;23.346;2022-10-26T12:37:21;95038.69;;;27.95;30.06
6680;BME280;3376;42.664;23.346;2022-10-26T12:39:49;95040.47;;;28.20;29.16
6680;BME280;3376;42.664;23.346;2022-10-26T12:42:31;95043.97;;;28.10;29.32
6680;BME280;3376;42.664;23.346;2022-10-26T12:45:20;95041.06;;;28.02;29.54
6680;BME280;3376;42.664;23.346;2022-10-26T12:48:02;95047.22;;;28.02;28.99
6680;BME280;3376;42.664;23.346;2022-10-26T12:50:31;94892.63;;;27.28;30.57
6680;BME280;3376;42.664;23.346;2022-10-26T12:52:59;95041.66;;;28.67;28.77
6680;BME280;3376;42.664;23.346;2022-10-26T12:56:02;95050.16;;;28.64;28.58
6680;BME280;3376;42.664;23.346;2022-10-26T13:01:29;95056.28;;;27.91;29.18
6680;BME280;3376;42.664;23.346;2022-10-26T13:04:12;95022.25;;;27.58;29.50
6680;BME280;3376;42.664;23.346;2022-10-26T13:06:58;95041.91;;;27.22;32.38
6680;BME280;3376;42.664;23.346;2022-10-26T13:09:35;95002.25;;;26.90;30.30
6680;BME280;3376;42.664;23.346;2022-10-26T13:12:03;95025.09;;;26.86;30.32
6680;BME280;3376;42.664;23.346;2022-10-26T13:14:33;95046.66;;;26.90;29.81
6680;BME280;3376;42.664;23.346;2022-10-26T13:17:03;95044.53;;;26.87;29.54
6680;BME280;3376;42.664;23.346;2022-10-26T13:19:37;94991.53;;;26.50;29.39
6680;BME280;3376;42.664;23.346;2022-10-26T13:22:13;95047.75;;;27.04;29.16
6680;BME280;3376;42.664;23.346;2022-10-26T13:24:47;95057.06;;;27.11;28.33
6680;BME280;3376;42.664;23.346;2022-10-26T13:33:28;95052.28;;;27.18;27.56
6680;BME280;3376;42.664;23.346;2022-10-26T13:35:57;95061.31;;;26.92;27.79
6680;BME280;3376;42.664;23.346;2022-10-26T13:38:31;95060.75;;;26.95;27.45
6680;BME280;3376;42.664;23.346;2022-10-26T13:41:05;95028.31;;;26.88;27.74
6680;BME280;3376;42.664;23.346;2022-10-26T13:43:35;94925.81;;;26.15;27.56
6680;BME280;3376;42.664;23.346;2022-10-26T13:46:03;95063.72;;;27.14;27.10
6680;BME280;3376;42.664;23.346;2022-10-26T13:48:37;95046.97;;;27.13;27.81